createdAt,value
2023-01-03T00:01:23.537Z,10.20
2023-01-03T00:03:56.949Z,9.90
2023-01-03T00:06:30.392Z,9.60
2023-01-03T00:09:01.567Z,9.20
2023-01-03T00:11:45.360Z,9.10
2023-01-03T00:14:17.550Z,9.10
2023-01-03T00:16:48.720Z,9.00
2023-01-03T00:19:21.517Z,8.90
2023-01-03T00:21:51.833Z,8.90
2023-01-03T00:24:22.257Z,8.90
2023-01-03T00:26:52.334Z,8.90
2023-01-03T00:29:22.592Z,9.10
2023-01-03T00:31:53.099Z,8.90
2023-01-03T00:34:25.842Z,9.30
2023-01-03T00:36:55.831Z,9.50
2023-01-03T00:39:25.933Z,9.40
2023-01-03T00:41:56.387Z,9.60
2023-01-03T00:44:26.614Z,9.70
2023-01-03T00:46:56.607Z,9.50
2023-01-03T00:49:29.231Z,9.30
2023-01-03T00:51:59.285Z,9.10
2023-01-03T00:54:29.307Z,9.00
2023-01-03T00:56:59.313Z,8.80
2023-01-03T00:59:29.423Z,8.70
2023-01-03T01:02:00.361Z,8.80
2023-01-03T01:04:34.983Z,8.90
2023-01-03T01:07:07.177Z,9.80
2023-01-03T01:09:39.111Z,10.10
2023-01-03T01:12:09.945Z,10.40
2023-01-03T01:14:40.008Z,10.40
2023-01-03T01:17:11.406Z,10.50
2023-01-03T01:19:46.406Z,10.50
2023-01-03T01:22:16.445Z,10.50
2023-01-03T01:24:46.585Z,10.50
2023-01-03T01:27:16.581Z,10.50
2023-01-03T01:29:46.605Z,10.40
2023-01-03T01:32:16.658Z,10.40
2023-01-03T01:34:49.297Z,10.40
2023-01-03T01:37:19.319Z,10.40
2023-01-03T01:39:49.384Z,10.30
2023-01-03T01:42:43.590Z,10.30
2023-01-03T01:45:16.864Z,10.30
2023-01-03T01:47:53.119Z,10.20
2023-01-03T01:50:28.879Z,10.10
2023-01-03T01:53:00.569Z,10.10
2023-01-03T01:55:34.692Z,10.20
2023-01-03T01:58:05.110Z,10.10
2023-01-03T02:00:35.872Z,10.10
2023-01-03T02:03:06.322Z,10.00
2023-01-03T02:05:41.073Z,9.90
2023-01-03T02:08:11.139Z,10.00
2023-01-03T02:10:52.793Z,10.00
2023-01-03T02:13:39.618Z,9.90
2023-01-03T02:16:30.923Z,9.90
2023-01-03T02:19:09.574Z,9.80
2023-01-03T02:22:13.027Z,9.90
2023-01-03T02:25:15.571Z,9.80
2023-01-03T02:28:13.525Z,9.80
2023-01-03T02:30:49.705Z,9.70
2023-01-03T02:33:26.572Z,9.70
2023-01-03T02:36:03.686Z,9.70
2023-01-03T02:38:42.231Z,9.60
2023-01-03T02:41:18.353Z,9.60
2023-01-03T02:43:55.283Z,9.50
2023-01-03T02:46:30.689Z,9.60
2023-01-03T02:49:04.128Z,9.50
2023-01-03T02:51:36.957Z,9.50
2023-01-03T02:54:09.216Z,9.40
2023-01-03T02:56:41.906Z,9.40
2023-01-03T02:59:14.923Z,9.40
2023-01-03T03:01:51.059Z,9.40
2023-01-03T03:04:22.583Z,9.30
2023-01-03T03:06:59.698Z,9.30
2023-01-03T03:09:29.773Z,9.30
2023-01-03T03:12:13.546Z,9.30
2023-01-03T03:14:47.181Z,9.20
2023-01-03T03:17:23.660Z,9.30
2023-01-03T03:20:07.779Z,9.30
2023-01-03T03:22:55.213Z,9.40
2023-01-03T03:25:27.745Z,9.30
2023-01-03T03:28:12.955Z,9.30
2023-01-03T03:30:42.695Z,9.30
2023-01-03T03:33:16.587Z,9.30
2023-01-03T03:35:49.765Z,9.30
2023-01-03T03:38:24.252Z,9.20
2023-01-03T03:41:13.907Z,9.10
2023-01-03T03:44:01.548Z,8.90
2023-01-03T03:46:35.970Z,8.80
2023-01-03T03:49:23.077Z,8.80
2023-01-03T03:51:53.423Z,8.70
2023-01-03T03:54:25.310Z,8.50
2023-01-03T03:56:58.442Z,8.40
2023-01-03T03:59:30.667Z,8.20
2023-01-03T04:02:01.979Z,8.10
2023-01-03T04:04:37.795Z,8.00
2023-01-03T04:07:08.171Z,7.90
2023-01-03T04:09:38.188Z,7.90
2023-01-03T04:12:08.750Z,7.80
2023-01-03T04:14:38.698Z,7.80
2023-01-03T04:17:08.734Z,7.80
2023-01-03T04:19:41.380Z,7.80
2023-01-03T04:22:11.386Z,7.80
2023-01-03T04:24:41.394Z,7.60
2023-01-03T04:27:11.405Z,7.60
2023-01-03T04:29:41.400Z,7.40
2023-01-03T04:32:11.549Z,7.30
2023-01-03T04:34:45.417Z,7.20
2023-01-03T04:37:15.467Z,7.30
2023-01-03T04:39:45.475Z,7.50
2023-01-03T04:42:27.621Z,7.60
2023-01-03T04:44:57.629Z,7.60
2023-01-03T04:47:28.331Z,7.40
2023-01-03T04:50:01.026Z,7.40
2023-01-03T04:52:31.960Z,7.60
2023-01-03T04:55:01.967Z,7.70
2023-01-03T04:57:32.045Z,7.60
2023-01-03T05:00:02.103Z,7.60
2023-01-03T05:02:32.239Z,7.60
2023-01-03T05:05:05.012Z,7.60
2023-01-03T05:07:35.074Z,7.70
2023-01-03T05:10:05.426Z,7.60
2023-01-03T05:12:35.550Z,7.60
2023-01-03T05:15:05.556Z,7.50
2023-01-03T05:17:35.590Z,7.50
2023-01-03T05:20:21.855Z,7.50
2023-01-03T05:23:04.494Z,7.50
2023-01-03T05:25:46.708Z,7.50
2023-01-03T05:28:17.660Z,7.50
2023-01-03T05:30:47.873Z,7.40
2023-01-03T05:33:17.853Z,7.40
2023-01-03T05:35:51.400Z,7.40
2023-01-03T05:38:21.506Z,7.40
2023-01-03T05:40:51.535Z,7.40
2023-01-03T05:43:21.535Z,7.40
2023-01-03T05:45:53.342Z,7.40
2023-01-03T05:48:24.128Z,7.50
2023-01-03T05:50:59.591Z,7.40
2023-01-03T05:53:29.835Z,7.30
2023-01-03T05:55:59.878Z,7.20
2023-01-03T05:58:29.838Z,7.10
2023-01-03T06:00:59.815Z,7.10
2023-01-03T06:03:30.205Z,7.00
2023-01-03T06:06:09.889Z,7.00
2023-01-03T06:08:39.983Z,6.90
2023-01-03T06:11:10.527Z,7.00
2023-01-03T06:13:40.883Z,7.00
2023-01-03T06:16:25.252Z,6.90
2023-01-03T06:18:55.559Z,6.90
2023-01-03T06:21:28.237Z,6.90
2023-01-03T06:23:58.350Z,6.90
2023-01-03T06:26:29.868Z,6.90
2023-01-03T06:28:59.887Z,6.90
2023-01-03T06:31:30.129Z,6.80
2023-01-03T06:34:00.388Z,6.80
2023-01-03T06:36:34.705Z,6.70
2023-01-03T06:39:04.808Z,6.70
2023-01-03T06:41:34.783Z,6.70
2023-01-03T06:44:04.887Z,71.20
2023-01-03T06:46:47.391Z,6.60
2023-01-03T06:49:31.584Z,6.70
2023-01-03T06:52:17.448Z,6.80
2023-01-03T06:54:47.522Z,6.80
2023-01-03T06:57:26.451Z,6.90
2023-01-03T06:59:57.426Z,7.00
2023-01-03T07:02:27.626Z,7.00
2023-01-03T07:04:58.165Z,7.10
2023-01-03T07:07:30.816Z,7.10
2023-01-03T07:10:00.737Z,7.10
2023-01-03T07:12:43.058Z,7.00
2023-01-03T07:15:14.308Z,7.10
2023-01-03T07:17:44.225Z,7.10
2023-01-03T07:20:14.258Z,7.20
2023-01-03T07:22:46.814Z,7.20
2023-01-03T07:25:16.985Z,7.30
2023-01-03T07:27:46.954Z,7.50
2023-01-03T07:30:17.520Z,7.60
2023-01-03T07:32:47.652Z,7.60
2023-01-03T07:35:17.629Z,7.60
2023-01-03T07:37:50.285Z,7.70
2023-01-03T07:40:20.547Z,7.80
2023-01-03T07:43:02.926Z,7.80
2023-01-03T07:45:32.979Z,7.80
2023-01-03T07:48:02.996Z,7.90
2023-01-03T07:50:32.965Z,7.80
2023-01-03T07:53:06.134Z,7.80
2023-01-03T07:55:36.254Z,8.00
2023-01-03T07:58:06.421Z,8.00
2023-01-03T08:00:36.504Z,8.00
2023-01-03T08:03:10.749Z,8.00
2023-01-03T08:05:41.941Z,7.90
2023-01-03T08:08:14.622Z,8.00
2023-01-03T08:10:56.872Z,8.00
2023-01-03T08:13:26.952Z,8.00
2023-01-03T08:15:58.199Z,8.00
2023-01-03T08:18:29.824Z,8.00
2023-01-03T08:20:59.894Z,8.00
2023-01-03T08:23:32.984Z,8.10
2023-01-03T08:26:04.461Z,8.10
2023-01-03T08:28:34.818Z,8.10
2023-01-03T08:31:11.532Z,8.10
2023-01-03T08:33:45.303Z,8.10
2023-01-03T08:36:16.139Z,8.10
2023-01-03T08:38:50.262Z,8.00
2023-01-03T08:41:23.739Z,8.00
2023-01-03T08:43:54.504Z,8.00
2023-01-03T08:46:25.572Z,8.00
2023-01-03T08:48:55.634Z,8.00
2023-01-03T08:51:26.837Z,8.00
2023-01-03T08:53:59.499Z,7.90
2023-01-03T08:56:29.516Z,7.90
2023-01-03T08:58:59.710Z,8.00
2023-01-03T09:01:30.097Z,8.10
2023-01-03T09:04:00.421Z,8.10
2023-01-03T09:06:31.103Z,8.20
2023-01-03T09:09:07.336Z,8.30
2023-01-03T09:11:37.443Z,8.30
2023-01-03T09:14:07.581Z,8.40
2023-01-03T09:16:37.639Z,8.40
2023-01-03T09:19:07.719Z,8.40
2023-01-03T09:21:37.762Z,8.50
2023-01-03T09:24:11.447Z,8.50
2023-01-03T09:26:41.473Z,8.60
2023-01-03T09:29:11.473Z,8.70
2023-01-03T09:31:41.456Z,8.70
2023-01-03T09:34:11.551Z,8.80
2023-01-03T09:36:41.562Z,8.90
2023-01-03T09:39:14.479Z,8.90
2023-01-03T09:41:45.257Z,9.00
2023-01-03T09:44:15.485Z,9.10
2023-01-03T09:46:45.589Z,9.20
2023-01-03T09:49:16.794Z,9.10
2023-01-03T09:52:01.281Z,9.10
2023-01-03T09:54:48.632Z,9.20
2023-01-03T09:57:33.478Z,9.20
2023-01-03T10:00:16.010Z,9.20
2023-01-03T10:03:14.759Z,9.20
2023-01-03T10:05:59.642Z,9.20
2023-01-03T10:08:36.987Z,9.20
2023-01-03T10:11:11.933Z,9.10
2023-01-03T10:14:02.913Z,9.10
2023-01-03T10:16:43.441Z,9.00
2023-01-03T10:19:46.077Z,9.00
2023-01-03T10:22:20.067Z,9.10
2023-01-03T10:24:51.259Z,9.20
2023-01-03T10:27:25.333Z,9.20
2023-01-03T10:29:57.820Z,9.20
2023-01-03T10:32:45.618Z,9.20
2023-01-03T10:35:24.089Z,9.30
2023-01-03T10:37:55.299Z,9.30
2023-01-03T10:40:35.052Z,9.30
2023-01-03T10:43:16.184Z,9.30
2023-01-03T10:45:58.400Z,9.30
2023-01-03T10:48:36.111Z,9.20
2023-01-03T10:51:27.496Z,9.30
2023-01-03T10:53:59.131Z,9.30
2023-01-03T10:56:30.451Z,9.30
2023-01-03T10:59:19.412Z,9.40
2023-01-03T11:01:59.922Z,9.50
2023-01-03T11:04:30.689Z,9.60
2023-01-03T11:07:06.282Z,9.60
2023-01-03T11:09:39.078Z,9.50
2023-01-03T11:12:15.745Z,9.30
2023-01-03T11:14:56.405Z,9.30
2023-01-03T11:17:28.084Z,9.20
2023-01-03T11:19:59.618Z,9.20
2023-01-03T11:22:38.361Z,9.20
2023-01-03T11:25:23.487Z,9.10
2023-01-03T11:28:16.182Z,9.20
2023-01-03T11:30:55.865Z,9.20
2023-01-03T11:33:31.827Z,9.20
2023-01-03T11:36:14.499Z,9.20
2023-01-03T11:38:51.684Z,9.30
2023-01-03T11:41:35.435Z,9.20
2023-01-03T11:44:26.008Z,9.10
2023-01-03T11:47:08.517Z,9.00
2023-01-03T11:49:49.262Z,8.90
2023-01-03T11:52:25.322Z,8.90
2023-01-03T11:55:11.927Z,8.70
2023-01-03T11:57:47.514Z,8.60
2023-01-03T12:00:25.015Z,8.50
2023-01-03T12:03:11.063Z,8.40
2023-01-03T12:05:49.441Z,8.30
2023-01-03T12:08:45.031Z,8.30
2023-01-03T12:11:36.058Z,8.20
2023-01-03T12:14:13.223Z,8.20
2023-01-03T12:16:46.741Z,8.20
2023-01-03T12:19:27.895Z,8.30
2023-01-03T12:22:01.611Z,8.30
2023-01-03T12:24:36.362Z,8.20
2023-01-03T12:27:08.613Z,8.30
2023-01-03T12:29:49.881Z,8.20
2023-01-03T12:32:24.115Z,8.10
2023-01-03T12:35:03.651Z,8.10
2023-01-03T12:37:34.065Z,8.00
2023-01-03T12:40:06.479Z,8.00
2023-01-03T12:42:40.991Z,8.00
2023-01-03T12:45:29.768Z,8.00
2023-01-03T12:48:09.420Z,8.10
2023-01-03T12:50:46.902Z,8.10
2023-01-03T12:53:21.674Z,8.30
2023-01-03T12:56:02.949Z,8.30
2023-01-03T12:58:43.145Z,8.30
2023-01-03T13:01:18.056Z,8.30
2023-01-03T13:03:52.901Z,8.40
2023-01-03T13:06:28.267Z,8.30
2023-01-03T13:09:00.463Z,8.20
2023-01-03T13:11:33.851Z,8.10
2023-01-03T13:14:08.126Z,8.10
2023-01-03T13:16:46.528Z,8.10
2023-01-03T13:19:58.261Z,8.20
2023-01-03T13:22:50.102Z,8.30
2023-01-03T13:25:39.552Z,8.20
2023-01-03T13:28:36.990Z,8.20
2023-01-03T13:31:38.472Z,8.10
2023-01-03T13:34:20.926Z,8.20
2023-01-03T13:37:23.081Z,8.10
2023-01-03T13:40:20.330Z,8.00
2023-01-03T13:42:50.429Z,7.90
2023-01-03T13:45:58.293Z,7.70
2023-01-03T13:48:40.904Z,7.60
2023-01-03T13:51:50.094Z,7.60
2023-01-03T13:54:43.620Z,7.60
2023-01-03T13:57:32.838Z,7.60
2023-01-03T14:00:03.390Z,7.70
2023-01-03T14:03:17.962Z,7.70
2023-01-03T14:06:09.111Z,7.80
2023-01-03T14:09:12.587Z,7.80
2023-01-03T14:12:03.976Z,7.80
2023-01-03T14:14:38.008Z,7.80
2023-01-03T14:17:08.590Z,7.80
2023-01-03T14:19:39.749Z,7.80
2023-01-03T14:22:35.043Z,7.80
2023-01-03T14:25:05.161Z,7.70
2023-01-03T14:27:39.438Z,7.70
2023-01-03T14:30:23.997Z,7.60
2023-01-03T14:32:54.015Z,7.60
2023-01-03T14:35:37.950Z,7.60
2023-01-03T14:38:24.736Z,7.60
2023-01-03T14:40:56.006Z,7.50
2023-01-03T14:43:26.120Z,7.50
2023-01-03T14:45:57.993Z,7.40
2023-01-03T14:48:28.421Z,7.30
2023-01-03T14:50:58.732Z,7.30
2023-01-03T14:53:31.593Z,7.30
2023-01-03T14:56:02.055Z,7.20
2023-01-03T14:58:35.970Z,7.20
2023-01-03T15:01:08.794Z,7.10
2023-01-03T15:03:40.719Z,240.60
2023-01-03T15:06:22.403Z,240.60
2023-01-03T15:08:57.097Z,240.60
2023-01-03T15:11:31.131Z,240.60
2023-01-03T15:14:03.810Z,240.60
2023-01-03T15:16:36.101Z,240.60
2023-01-03T15:19:16.680Z,240.60
2023-01-03T15:21:46.868Z,240.60
2023-01-03T15:24:21.118Z,240.60
2023-01-03T15:26:52.146Z,240.60
2023-01-03T15:29:24.024Z,6.50
2023-01-03T15:31:59.215Z,6.50
2023-01-03T15:34:40.154Z,6.40
2023-01-03T15:37:16.612Z,6.50
2023-01-03T15:39:51.039Z,6.40
2023-01-03T15:42:44.748Z,6.30
2023-01-03T15:45:20.971Z,6.20
2023-01-03T15:47:52.039Z,6.20
2023-01-03T15:50:22.591Z,6.20
2023-01-03T15:52:52.805Z,6.10
2023-01-03T15:55:25.391Z,5.90
2023-01-03T15:57:56.622Z,6.00
2023-01-03T16:00:28.107Z,6.00
2023-01-03T16:02:58.491Z,6.10
2023-01-03T16:05:28.639Z,6.00
2023-01-03T16:07:58.584Z,6.00
2023-01-03T16:10:31.226Z,5.90
2023-01-03T16:13:01.286Z,5.80
2023-01-03T16:15:31.336Z,5.80
2023-01-03T16:18:01.458Z,5.70
2023-01-03T16:20:31.433Z,5.70
2023-01-03T16:23:02.161Z,5.60
2023-01-03T16:25:34.802Z,5.60
2023-01-03T16:28:11.834Z,5.60
2023-01-03T16:30:42.341Z,5.70
2023-01-03T16:33:18.981Z,5.70
2023-01-03T16:35:49.234Z,5.70
2023-01-03T16:38:19.428Z,5.90
2023-01-03T16:40:51.943Z,5.80
2023-01-03T16:43:22.190Z,5.70
2023-01-03T16:45:52.359Z,5.70
2023-01-03T16:48:24.489Z,5.60
2023-01-03T16:50:56.432Z,5.50
2023-01-03T16:53:33.846Z,5.40
2023-01-03T16:56:07.322Z,5.40
2023-01-03T16:58:37.424Z,5.30
2023-01-03T17:01:08.014Z,5.30
2023-01-03T17:03:41.762Z,5.30
2023-01-03T17:06:25.218Z,5.30
2023-01-03T17:08:55.550Z,5.20
2023-01-03T17:11:28.889Z,5.20
2023-01-03T17:14:02.771Z,5.10
2023-01-03T17:16:34.114Z,5.00
2023-01-03T17:19:04.203Z,4.80
2023-01-03T17:21:35.994Z,4.80
2023-01-03T17:24:08.866Z,4.70
2023-01-03T17:26:41.529Z,4.70
2023-01-03T17:29:17.714Z,4.60
2023-01-03T17:31:47.735Z,4.50
2023-01-03T17:34:23.956Z,4.40
2023-01-03T17:36:54.129Z,4.30
2023-01-03T17:39:25.073Z,4.20
2023-01-03T17:42:10.016Z,3.90
2023-01-03T17:44:40.332Z,3.60
2023-01-03T17:47:35.885Z,3.70
2023-01-03T17:50:06.216Z,3.60
2023-01-03T17:52:37.969Z,3.60
2023-01-03T17:55:14.541Z,3.90
2023-01-03T17:57:47.242Z,3.60
2023-01-03T18:00:21.667Z,3.80
2023-01-03T18:02:51.778Z,4.00
2023-01-03T18:05:27.723Z,3.90
2023-01-03T18:07:58.832Z,3.90
2023-01-03T18:10:35.541Z,3.70
2023-01-03T18:13:17.761Z,3.60
2023-01-03T18:15:47.786Z,3.70
2023-01-03T18:18:18.714Z,3.80
2023-01-03T18:20:48.952Z,3.90
2023-01-03T18:23:20.698Z,4.00
2023-01-03T18:25:50.736Z,3.90
2023-01-03T18:28:25.349Z,4.00
2023-01-03T18:30:55.999Z,4.10
2023-01-03T18:33:26.595Z,4.10
2023-01-03T18:35:56.838Z,4.10
2023-01-03T18:38:29.550Z,4.20
2023-01-03T18:41:05.099Z,4.00
2023-01-03T18:43:39.196Z,4.00
2023-01-03T18:46:12.532Z,3.90
2023-01-03T18:48:42.486Z,3.90
2023-01-03T18:51:16.723Z,3.80
2023-01-03T18:53:49.173Z,3.80
2023-01-03T18:56:28.865Z,3.70
2023-01-03T18:59:03.752Z,3.60
2023-01-03T19:01:34.439Z,3.50
2023-01-03T19:04:05.163Z,3.50
2023-01-03T19:06:35.465Z,3.50
2023-01-03T19:09:07.254Z,3.40
2023-01-03T19:11:39.088Z,3.40
2023-01-03T19:14:13.203Z,3.30
2023-01-03T19:16:43.752Z,3.40
2023-01-03T19:19:14.019Z,3.30
2023-01-03T19:21:45.901Z,3.20
2023-01-03T19:24:22.751Z,3.20
2023-01-03T19:26:57.499Z,3.00
2023-01-03T19:29:36.998Z,3.00
2023-01-03T19:32:08.816Z,2.90
2023-01-03T19:34:38.855Z,2.80
2023-01-03T19:37:08.894Z,2.70
2023-01-03T19:39:38.868Z,2.70
2023-01-03T19:42:22.929Z,2.60
2023-01-03T19:44:55.994Z,2.50
2023-01-03T19:47:26.048Z,2.20
2023-01-03T19:49:58.054Z,2.10
2023-01-03T19:52:28.081Z,2.20
2023-01-03T19:54:58.085Z,2.30
2023-01-03T19:57:33.491Z,2.30
2023-01-03T20:00:07.209Z,2.20
2023-01-03T20:02:40.443Z,2.10
2023-01-03T20:05:20.342Z,2.10
2023-01-03T20:07:52.176Z,2.10
2023-01-03T20:10:24.140Z,2.10
2023-01-03T20:12:57.211Z,2.10
2023-01-03T20:15:32.017Z,2.10
2023-01-03T20:18:04.016Z,2.00
2023-01-03T20:20:35.841Z,1.90
2023-01-03T20:23:13.771Z,1.90
2023-01-03T20:25:48.306Z,1.90
2023-01-03T20:28:26.818Z,1.80
2023-01-03T20:31:00.372Z,1.80
2023-01-03T20:33:31.131Z,1.90
2023-01-03T20:36:17.605Z,1.80
2023-01-03T20:38:51.607Z,1.80
2023-01-03T20:41:22.072Z,1.80
2023-01-03T20:43:54.585Z,1.80
2023-01-03T20:46:29.363Z,1.70
2023-01-03T20:49:01.518Z,1.60
2023-01-03T20:51:32.583Z,1.70
2023-01-03T20:54:02.767Z,1.70
2023-01-03T20:56:35.706Z,1.70
2023-01-03T20:59:06.356Z,1.70
2023-01-03T21:01:39.135Z,1.70
2023-01-03T21:04:09.789Z,1.60
2023-01-03T21:06:41.357Z,1.50
2023-01-03T21:09:11.662Z,1.30
2023-01-03T21:11:41.679Z,1.10
2023-01-03T21:14:13.717Z,1.00
2023-01-03T21:16:47.344Z,1.00
2023-01-03T21:19:21.488Z,0.80
2023-01-03T21:21:53.459Z,0.70
2023-01-03T21:24:26.474Z,0.60
2023-01-03T21:26:56.481Z,0.60
2023-01-03T21:29:28.006Z,0.50
2023-01-03T21:32:00.656Z,0.50
2023-01-03T21:34:30.779Z,0.50
2023-01-03T21:37:00.813Z,0.50
2023-01-03T21:39:30.837Z,0.50
2023-01-03T21:42:13.171Z,0.40
2023-01-03T21:44:43.258Z,0.40
2023-01-03T21:47:15.771Z,0.30
2023-01-03T21:49:45.818Z,0.30
2023-01-03T21:52:15.798Z,0.10
2023-01-03T21:54:45.823Z,0.20
2023-01-03T21:57:22.764Z,0.20
2023-01-03T21:59:53.276Z,0.20
2023-01-03T22:02:38.361Z,0.30
2023-01-03T22:05:09.236Z,0.20
2023-01-03T22:07:39.526Z,0.20
2023-01-03T22:10:19.860Z,0.30
2023-01-03T22:12:51.703Z,0.40
2023-01-03T22:15:21.942Z,0.40
2023-01-03T22:17:54.835Z,0.40
2023-01-03T22:20:26.400Z,0.40
2023-01-03T22:22:59.271Z,0.30
2023-01-03T22:25:29.307Z,0.20
2023-01-03T22:27:59.381Z,0.10
2023-01-03T22:30:29.492Z,0.10
2023-01-03T22:33:02.024Z,0.10
2023-01-03T22:35:32.045Z,0.10
2023-01-03T22:38:02.033Z,0.10
2023-01-03T22:40:32.050Z,0.00
2023-01-03T22:43:02.031Z,0.00
2023-01-03T22:45:32.129Z,0.00
2023-01-03T22:48:04.767Z,0.00
2023-01-03T22:50:34.804Z,-0.20
2023-01-03T22:53:04.833Z,-0.20
2023-01-03T22:55:34.931Z,-0.20
2023-01-03T22:58:05.351Z,-0.20
2023-01-03T23:00:35.403Z,-0.30
2023-01-03T23:03:07.998Z,-0.60
2023-01-03T23:05:38.417Z,-0.70
2023-01-03T23:08:08.931Z,-0.70
2023-01-03T23:10:38.977Z,-0.70
2023-01-03T23:13:06.666Z,-0.80
2023-01-03T23:15:37.559Z,-0.90
2023-01-03T23:18:10.179Z,-1.00
2023-01-03T23:20:50.172Z,-0.90
2023-01-03T23:23:20.118Z,-1.00
2023-01-03T23:25:50.056Z,-1.00
2023-01-03T23:28:20.090Z,-1.00
2023-01-03T23:30:50.085Z,-1.00
2023-01-03T23:33:23.277Z,-1.10
2023-01-03T23:35:53.980Z,-1.00
2023-01-03T23:38:23.964Z,-1.10
2023-01-03T23:40:54.038Z,-1.00
2023-01-03T23:43:24.022Z,-1.00
2023-01-03T23:45:54.050Z,-1.00
2023-01-03T23:48:26.770Z,-0.90
2023-01-03T23:50:56.898Z,-0.90
2023-01-03T23:53:27.086Z,-0.90
2023-01-03T23:55:57.352Z,-0.90
2023-01-03T23:58:27.451Z,-0.90
